Time;durP1;ratioP1;P1;durP2;ratioP2;P2;SDS_P1;SDS_P2;PMS_P1;PMS_P2;Temp;Humidity;BMP_temperature;BMP_pressure;BME280_temperature;BME280_humidity;BME280_pressure;Samples;Min_cycle;Max_cycle;Signal;HPM_P1;HPM_P2
2023/07/10 00:01:04;;;;;;;15.07;5.77;;;19.10;21.80;;;;;;5078725;27;46437;-69
2023/07/10 00:03:30;;;;;;;9.60;4.83;;;19.10;21.80;;;;;;5077667;27;46450;-70
2023/07/10 00:06:00;;;;;;;13.03;6.27;;;19.00;22.00;;;;;;5079919;27;46464;-70
2023/07/10 00:08:26;;;;;;;8.73;5.33;;;19.10;22.30;;;;;;5077046;27;47304;-70
2023/07/10 00:10:52;;;;;;;12.70;5.73;;;19.10;22.10;;;;;;5081885;27;46515;-70
2023/07/10 00:13:21;;;;;;;14.90;5.37;;;19.10;22.00;;;;;;5075618;27;45925;-71
2023/07/10 00:15:52;;;;;;;13.40;5.73;;;19.00;22.10;;;;;;5078673;27;46456;-70
2023/07/10 00:18:20;;;;;;;12.97;5.00;;;19.10;22.40;;;;;;5077348;27;46662;-70
2023/07/10 00:20:46;;;;;;;14.70;5.63;;;19.00;22.30;;;;;;5081596;27;46368;-70
2023/07/10 00:23:13;;;;;;;11.20;5.30;;;19.10;22.10;;;;;;5082171;27;46430;-70
2023/07/10 00:25:38;;;;;;;16.40;5.90;;;19.10;22.00;;;;;;5079393;27;46884;-70
2023/07/10 00:28:16;;;;;;;10.93;5.30;;;19.20;21.90;;;;;;5080637;27;46608;-70
2023/07/10 00:30:45;;;;;;;9.03;4.93;;;19.20;22.20;;;;;;5073975;27;46817;-70
2023/07/10 00:33:13;;;;;;;10.97;5.10;;;19.10;21.90;;;;;;5076286;27;46479;-70
2023/07/10 00:35:40;;;;;;;16.13;5.40;;;19.10;21.90;;;;;;5079149;27;46667;-70
2023/07/10 00:38:16;;;;;;;11.10;5.33;;;19.10;22.10;;;;;;5073829;27;46514;-70
2023/07/10 00:40:45;;;;;;;10.90;4.97;;;19.10;22.50;;;;;;5077142;27;46508;-70
2023/07/10 00:43:35;;;;;;;10.33;5.70;;;19.00;22.40;;;;;;5074188;27;46720;-70
2023/07/10 00:46:12;;;;;;;10.60;5.03;;;18.90;23.00;;;;;;5078054;27;46463;-70
2023/07/10 00:48:55;;;;;;;9.90;5.00;;;18.80;22.90;;;;;;5073876;27;47101;-70
2023/07/10 00:51:33;;;;;;;12.20;5.83;;;18.70;23.20;;;;;;5073945;27;46676;-70
2023/07/10 00:54:01;;;;;;;12.47;5.77;;;18.70;23.30;;;;;;5081022;27;46715;-70
2023/07/10 00:56:34;;;;;;;12.47;6.03;;;18.70;23.20;;;;;;5073629;27;46610;-70
2023/07/10 00:59:24;;;;;;;11.13;5.00;;;18.70;23.10;;;;;;5076632;27;46743;-70
2023/07/10 01:02:08;;;;;;;10.23;5.00;;;18.80;23.30;;;;;;5080663;27;46411;-70
2023/07/10 01:04:39;;;;;;;10.60;4.67;;;18.80;23.20;;;;;;5078382;27;46453;-70
2023/07/10 01:07:07;;;;;;;12.00;5.47;;;18.80;22.80;;;;;;5077780;27;46454;-70
2023/07/10 01:09:33;;;;;;;9.63;4.97;;;18.80;22.80;;;;;;5079067;27;47106;-70
2023/07/10 01:11:58;;;;;;;10.10;5.20;;;18.90;22.70;;;;;;5077406;27;46457;-70
2023/07/10 01:14:24;;;;;;;9.60;5.03;;;19.00;22.60;;;;;;5080355;27;46571;-70
2023/07/10 01:16:51;;;;;;;11.77;5.43;;;19.00;22.30;;;;;;5077438;27;46478;-70
2023/07/10 01:19:21;;;;;;;10.00;5.00;;;19.00;22.40;;;;;;5075265;27;46664;-70
2023/07/10 01:21:46;;;;;;;9.53;4.80;;;19.10;22.30;;;;;;5078469;27;46536;-70
2023/07/10 01:24:12;;;;;;;11.37;5.07;;;19.10;22.10;;;;;;5078628;27;46462;-70
2023/07/10 01:26:39;;;;;;;12.13;4.67;;;19.10;21.90;;;;;;5077846;27;46567;-70
2023/07/10 01:29:21;;;;;;;10.33;5.17;;;18.90;22.50;;;;;;5075503;27;46704;-70
2023/07/10 01:31:49;;;;;;;10.07;5.30;;;18.70;22.90;;;;;;5079682;27;46475;-70
2023/07/10 01:34:17;;;;;;;16.33;5.40;;;18.50;23.90;;;;;;5078082;27;45854;-70
2023/07/10 01:36:44;;;;;;;12.53;5.10;;;18.50;23.30;;;;;;5082523;27;45929;-70
2023/07/10 01:39:09;;;;;;;14.47;5.10;;;18.50;24.30;;;;;;5076981;27;46457;-69
2023/07/10 01:41:41;;;;;;;13.73;5.20;;;18.50;23.60;;;;;;5080274;27;45780;-70
2023/07/10 01:44:29;;;;;;;9.10;4.43;;;18.40;23.70;;;;;;5075450;27;46455;-70
2023/07/10 01:46:57;;;;;;;8.60;4.90;;;18.30;24.00;;;;;;5074325;27;46463;-70
2023/07/10 01:49:47;;;;;;;10.03;6.00;;;18.30;23.70;;;;;;5075337;27;46462;-69
2023/07/10 01:52:16;;;;;;;11.07;5.90;;;18.30;24.10;;;;;;5081903;27;45883;-71
2023/07/10 01:54:42;;;;;;;12.23;4.83;;;18.30;23.80;;;;;;5077896;27;46442;-70
2023/07/10 01:57:09;;;;;;;15.63;4.77;;;18.30;23.80;;;;;;5079024;27;46482;-71
2023/07/10 01:59:35;;;;;;;11.80;4.67;;;18.30;23.90;;;;;;5073354;27;48312;-70
2023/07/10 02:02:01;;;;;;;13.00;5.77;;;18.30;24.00;;;;;;5074432;27;46598;-71
2023/07/10 02:04:27;;;;;;;17.07;5.97;;;18.30;23.80;;;;;;5079608;27;46401;-71
2023/07/10 02:06:56;;;;;;;9.30;5.13;;;18.30;23.80;;;;;;5076887;27;46481;-71
2023/07/10 02:09:23;;;;;;;14.97;5.10;;;18.30;23.90;;;;;;5075945;27;47135;-71
2023/07/10 02:11:49;;;;;;;13.53;5.50;;;18.20;24.00;;;;;;5076209;27;46402;-70
2023/07/10 02:14:14;;;;;;;9.80;5.37;;;18.30;23.90;;;;;;5080361;27;46580;-70
2023/07/10 02:16:40;;;;;;;15.93;5.60;;;18.20;23.90;;;;;;5073387;27;46479;-71
2023/07/10 02:19:07;;;;;;;11.17;5.73;;;18.20;24.20;;;;;;5074005;27;48061;-71
2023/07/10 02:21:32;;;;;;;12.80;5.57;;;18.10;24.40;;;;;;5080680;27;46246;-70
2023/07/10 02:23:58;;;;;;;10.33;4.93;;;18.10;24.50;;;;;;5075766;27;46381;-71
2023/07/10 02:26:24;;;;;;;14.13;6.27;;;18.10;24.50;;;;;;5076916;27;46765;-70
2023/07/10 02:28:49;;;;;;;13.27;5.53;;;18.10;24.50;;;;;;5079535;27;46521;-70
2023/07/10 02:31:15;;;;;;;8.87;4.80;;;18.10;24.60;;;;;;5080614;27;46653;-71
2023/07/10 02:33:41;;;;;;;10.73;5.30;;;18.10;24.70;;;;;;5077350;27;46757;-70
2023/07/10 02:36:06;;;;;;;9.20;5.27;;;18.10;24.70;;;;;;5081624;27;46353;-70
2023/07/10 02:38:32;;;;;;;12.37;5.83;;;18.20;24.60;;;;;;5080124;27;46458;-70
2023/07/10 02:40:59;;;;;;;10.67;6.00;;;18.20;24.50;;;;;;5084416;27;46700;-70
2023/07/10 02:43:24;;;;;;;14.90;5.23;;;18.20;24.50;;;;;;5085832;27;46673;-70
2023/07/10 02:45:50;;;;;;;11.33;5.40;;;18.30;24.50;;;;;;5075979;27;46711;-69
2023/07/10 02:48:16;;;;;;;12.20;5.33;;;18.30;24.70;;;;;;5075999;27;47081;-70
2023/07/10 02:50:42;;;;;;;11.87;5.07;;;18.40;24.70;;;;;;5077535;27;46576;-70
2023/07/10 02:53:08;;;;;;;16.90;6.00;;;18.40;24.40;;;;;;5077996;27;46431;-70
2023/07/10 02:55:34;;;;;;;8.63;5.00;;;18.40;24.40;;;;;;5080364;27;46885;-70
2023/07/10 02:58:00;;;;;;;8.70;4.73;;;18.50;24.50;;;;;;5077439;27;46339;-70
2023/07/10 03:00:26;;;;;;;10.30;5.13;;;18.50;24.30;;;;;;5080502;27;46401;-70
2023/07/10 03:02:54;;;;;;;14.27;5.33;;;18.50;24.20;;;;;;5080431;27;46541;-70
2023/07/10 03:05:22;;;;;;;10.07;5.53;;;18.60;24.20;;;;;;5074838;27;46450;-70
2023/07/10 03:07:47;;;;;;;10.50;5.30;;;18.60;24.00;;;;;;5084023;27;46787;-71
2023/07/10 03:10:13;;;;;;;9.63;5.40;;;18.60;23.90;;;;;;5079447;27;45855;-70
2023/07/10 03:12:38;;;;;;;11.50;5.63;;;18.60;23.80;;;;;;5082649;27;46612;-71
2023/07/10 03:15:05;;;;;;;11.80;6.13;;;18.70;23.80;;;;;;5081688;27;47428;-71
2023/07/10 03:17:32;;;;;;;10.77;4.87;;;18.70;23.70;;;;;;5076315;27;46706;-70
2023/07/10 03:19:57;;;;;;;13.73;5.67;;;18.70;23.60;;;;;;5081210;27;46438;-71
2023/07/10 03:22:23;;;;;;;11.47;5.90;;;18.70;23.60;;;;;;5085075;27;46690;-71
2023/07/10 03:24:54;;;;;;;13.63;5.40;;;18.70;23.50;;;;;;5077572;27;45956;-71
2023/07/10 03:27:20;;;;;;;11.70;6.20;;;18.80;23.40;;;;;;5075593;27;47425;-71
2023/07/10 03:29:46;;;;;;;10.63;5.40;;;18.80;23.10;;;;;;5080500;27;46418;-70
2023/07/10 03:32:12;;;;;;;10.77;5.47;;;18.90;23.10;;;;;;5080183;27;46457;-71
2023/07/10 03:34:38;;;;;;;11.60;5.50;;;18.80;23.10;;;;;;5085773;27;46513;-70
2023/07/10 03:37:04;;;;;;;12.73;5.20;;;18.80;23.20;;;;;;5075485;27;47182;-70
2023/07/10 03:39:30;;;;;;;14.37;5.90;;;18.80;23.20;;;;;;5075639;27;46340;-70
2023/07/10 03:41:55;;;;;;;13.10;5.43;;;18.80;23.20;;;;;;5079015;27;46477;-70
2023/07/10 03:44:21;;;;;;;8.30;5.10;;;18.90;23.20;;;;;;5077329;27;45940;-70
2023/07/10 03:46:47;;;;;;;10.93;5.27;;;18.90;23.10;;;;;;5079813;27;46491;-70
2023/07/10 03:49:13;;;;;;;11.03;5.30;;;19.00;23.10;;;;;;5072720;27;46510;-70
2023/07/10 03:51:38;;;;;;;11.00;4.90;;;19.00;23.00;;;;;;5074056;27;46428;-70
2023/07/10 03:54:05;;;;;;;14.70;5.80;;;19.00;23.00;;;;;;5083985;27;46440;-70
2023/07/10 03:56:31;;;;;;;11.63;4.97;;;19.10;23.00;;;;;;5081805;27;46550;-70
2023/07/10 03:58:57;;;;;;;11.77;5.40;;;19.10;23.00;;;;;;5071030;27;46401;-70
2023/07/10 04:01:23;;;;;;;11.13;5.80;;;19.20;22.80;;;;;;5080579;27;46426;-70
2023/07/10 04:03:48;;;;;;;9.00;4.90;;;19.30;22.60;;;;;;5077128;27;46651;-71
2023/07/10 04:06:16;;;;;;;10.80;5.50;;;19.50;22.30;;;;;;5079386;27;47389;-70
2023/07/10 04:08:44;;;;;;;10.30;5.57;;;19.60;22.10;;;;;;5082165;27;46371;-70
2023/07/10 04:11:19;;;;;;;12.03;4.40;;;19.60;22.10;;;;;;5072592;27;46639;-71
2023/07/10 04:13:46;;;;;;;15.47;5.00;;;19.70;22.20;;;;;;5074979;27;46081;-70
2023/07/10 04:16:22;;;;;;;10.20;5.10;;;19.80;22.30;;;;;;5078163;27;47456;-70
2023/07/10 04:18:51;;;;;;;9.43;5.20;;;19.90;22.40;;;;;;5080066;27;46613;-70
2023/07/10 04:21:28;;;;;;;10.23;4.83;;;20.00;22.30;;;;;;5070906;27;45843;-70
2023/07/10 04:23:54;;;;;;;7.37;4.60;;;20.10;21.80;;;;;;5074928;27;46449;-70
2023/07/10 04:26:29;;;;;;;13.03;4.97;;;20.30;21.50;;;;;;5078691;27;46526;-70
2023/07/10 04:28:56;;;;;;;14.90;5.27;;;20.30;21.30;;;;;;5076374;27;46381;-70
2023/07/10 04:31:23;;;;;;;10.20;4.40;;;20.50;21.20;;;;;;5077863;27;46469;-70
2023/07/10 04:33:50;;;;;;;11.63;5.50;;;20.60;20.90;;;;;;5081077;27;46677;-70
2023/07/10 04:36:16;;;;;;;11.60;5.23;;;20.70;20.70;;;;;;5081303;27;46891;-70
2023/07/10 04:38:42;;;;;;;14.80;4.87;;;20.80;20.40;;;;;;5080501;27;46451;-70
2023/07/10 04:41:11;;;;;;;11.07;4.43;;;21.00;20.20;;;;;;5086411;27;46557;-70
2023/07/10 04:43:36;;;;;;;12.37;5.27;;;21.20;20.00;;;;;;5072213;27;46789;-70
2023/07/10 04:46:08;;;;;;;14.70;4.60;;;21.30;19.60;;;;;;5075899;27;47153;-70
2023/07/10 04:48:33;;;;;;;9.73;4.70;;;21.50;19.30;;;;;;5077952;27;46487;-69
2023/07/10 04:51:03;;;;;;;11.73;4.90;;;21.60;19.10;;;;;;5076928;27;46694;-70
2023/07/10 04:53:32;;;;;;;14.13;4.80;;;21.80;18.80;;;;;;5079538;27;46454;-70
2023/07/10 04:56:01;;;;;;;13.97;4.97;;;22.00;18.50;;;;;;5076334;27;46670;-70
2023/07/10 04:58:28;;;;;;;14.00;4.57;;;22.20;18.20;;;;;;5075687;27;46665;-69
2023/07/10 05:00:59;;;;;;;10.47;4.90;;;22.50;17.70;;;;;;5081067;27;46859;-70
2023/07/10 05:03:25;;;;;;;12.40;4.87;;;22.70;17.30;;;;;;5075898;27;46454;-70
2023/07/10 05:05:52;;;;;;;9.53;4.90;;;22.70;17.00;;;;;;5079669;27;46409;-70
2023/07/10 05:08:18;;;;;;;9.13;4.90;;;22.80;16.70;;;;;;5077698;27;45833;-69
2023/07/10 05:10:44;;;;;;;11.20;4.73;;;23.00;16.70;;;;;;5078530;27;46314;-70
2023/07/10 05:13:09;;;;;;;8.60;4.03;;;23.10;16.30;;;;;;5076890;27;46409;-70
2023/07/10 05:15:35;;;;;;;9.07;4.60;;;23.20;16.20;;;;;;5080617;27;46508;-70
2023/07/10 05:18:00;;;;;;;10.07;5.00;;;23.20;16.10;;;;;;5075577;27;46669;-70
2023/07/10 05:20:26;;;;;;;8.97;5.10;;;23.20;16.10;;;;;;5080258;27;46511;-70
2023/07/10 05:22:51;;;;;;;12.13;4.60;;;23.20;15.90;;;;;;5082161;27;46735;-69
2023/07/10 05:25:18;;;;;;;8.97;5.03;;;23.20;16.00;;;;;;5077014;27;46014;-69
2023/07/10 05:27:43;;;;;;;10.77;4.93;;;23.30;16.00;;;;;;5074013;27;46735;-70
2023/07/10 05:30:09;;;;;;;11.80;4.73;;;23.30;15.90;;;;;;5074172;27;46399;-70
2023/07/10 05:32:35;;;;;;;13.93;5.30;;;23.40;15.90;;;;;;5078972;27;46498;-69
2023/07/10 05:35:00;;;;;;;11.03;4.80;;;23.40;15.80;;;;;;5082479;27;47486;-69
2023/07/10 05:37:26;;;;;;;12.23;5.57;;;23.40;16.30;;;;;;5069462;27;46467;-70
2023/07/10 05:39:52;;;;;;;7.97;4.50;;;23.40;16.40;;;;;;5074403;27;46280;-71
2023/07/10 05:42:18;;;;;;;12.50;5.37;;;23.40;16.50;;;;;;5077102;27;46671;-70
2023/07/10 05:44:43;;;;;;;8.50;4.70;;;23.50;16.50;;;;;;5075861;27;46387;-70
2023/07/10 05:47:09;;;;;;;9.90;4.50;;;23.60;16.30;;;;;;5077217;27;46516;-71
2023/07/10 05:49:34;;;;;;;10.77;5.10;;;23.70;16.10;;;;;;5075419;27;46750;-70
2023/07/10 05:52:00;;;;;;;11.07;4.40;;;23.70;15.80;;;;;;5077669;27;46654;-70
2023/07/10 05:54:26;;;;;;;10.70;4.63;;;23.80;15.80;;;;;;5079540;27;47012;-70
2023/07/10 05:56:51;;;;;;;8.50;4.60;;;23.80;16.00;;;;;;5074714;27;46707;-69
2023/07/10 05:59:17;;;;;;;8.83;4.67;;;23.70;16.10;;;;;;5077662;27;46475;-68
2023/07/10 06:01:43;;;;;;;21.70;5.80;;;23.80;16.00;;;;;;5075363;27;46755;-68
2023/07/10 06:04:08;;;;;;;11.20;4.07;;;23.80;15.80;;;;;;5079315;27;46450;-68
2023/07/10 06:06:34;;;;;;;10.70;3.77;;;23.90;15.20;;;;;;5073875;27;46425;-68
2023/07/10 06:08:59;;;;;;;11.10;5.00;;;24.00;14.60;;;;;;5077879;27;46714;-69
2023/07/10 06:11:25;;;;;;;17.53;4.33;;;24.10;14.30;;;;;;5080783;27;46262;-67
2023/07/10 06:13:51;;;;;;;8.90;3.87;;;24.20;14.30;;;;;;5085418;27;45926;-68
2023/07/10 06:16:16;;;;;;;7.83;4.37;;;24.40;13.70;;;;;;5085130;27;46418;-69
2023/07/10 06:18:42;;;;;;;9.43;4.13;;;24.50;13.40;;;;;;5080304;27;46346;-68
2023/07/10 06:21:10;;;;;;;16.70;5.10;;;24.50;13.30;;;;;;5080137;27;46509;-68
2023/07/10 06:23:36;;;;;;;11.27;4.23;;;24.40;13.30;;;;;;5077752;27;47945;-68
2023/07/10 06:26:02;;;;;;;12.90;4.20;;;24.40;13.30;;;;;;5080079;27;46715;-69
2023/07/10 06:28:30;;;;;;;8.73;4.37;;;24.40;13.20;;;;;;5080495;27;46465;-68
2023/07/10 06:30:59;;;;;;;8.17;4.30;;;24.50;13.00;;;;;;5086191;27;46653;-68
2023/07/10 06:33:25;;;;;;;10.90;3.77;;;24.60;12.50;;;;;;5078864;27;47464;-69
2023/07/10 06:35:51;;;;;;;9.60;3.97;;;24.80;12.10;;;;;;5074167;27;46742;-69
2023/07/10 06:38:17;;;;;;;9.77;4.37;;;25.00;11.50;;;;;;5079071;27;46768;-69
2023/07/10 06:40:43;;;;;;;9.43;3.70;;;25.20;10.80;;;;;;5078877;27;46884;-68
2023/07/10 06:43:09;;;;;;;11.10;5.00;;;25.20;10.60;;;;;;5074146;27;47410;-69
2023/07/10 06:45:34;;;;;;;9.90;4.30;;;25.20;10.40;;;;;;5080114;27;46401;-69
2023/07/10 06:48:00;;;;;;;11.30;5.00;;;25.10;10.30;;;;;;5079714;27;46824;-69
2023/07/10 06:50:26;;;;;;;6.27;3.67;;;25.00;10.40;;;;;;5081462;27;46514;-70
2023/07/10 06:52:52;;;;;;;13.27;4.20;;;24.80;10.30;;;;;;5081512;27;46410;-68
2023/07/10 06:55:18;;;;;;;13.23;4.13;;;24.80;10.40;;;;;;5076401;27;46541;-70
2023/07/10 06:57:44;;;;;;;12.33;4.37;;;24.80;10.30;;;;;;5080345;27;46445;-69
2023/07/10 07:00:13;;;;;;;10.70;4.17;;;24.70;10.20;;;;;;5080215;27;46537;-70
2023/07/10 07:02:38;;;;;;;12.30;4.43;;;24.70;10.00;;;;;;5077461;27;47112;-68
2023/07/10 07:05:06;;;;;;;13.60;4.57;;;24.70;10.00;;;;;;5078569;27;46375;-67
2023/07/10 07:07:32;;;;;;;10.23;3.93;;;24.80;10.00;;;;;;5079273;27;46647;-68
2023/07/10 07:09:57;;;;;;;13.20;4.20;;;24.80;9.70;;;;;;5082790;27;46559;-68
2023/07/10 07:12:23;;;;;;;10.10;3.90;;;24.60;9.40;;;;;;5083788;27;46478;-68
2023/07/10 07:14:48;;;;;;;11.00;4.07;;;24.60;9.60;;;;;;5080472;27;46812;-68
2023/07/10 07:17:14;;;;;;;6.67;3.50;;;24.50;9.50;;;;;;5083391;27;46581;-68
2023/07/10 07:19:41;;;;;;;9.10;3.90;;;24.60;9.30;;;;;;5075843;27;46623;-69
2023/07/10 07:22:07;;;;;;;8.83;4.13;;;24.70;9.20;;;;;;5080405;28;47505;-69
2023/07/10 07:24:32;;;;;;;15.23;4.57;;;24.80;8.90;;;;;;5080337;27;46659;-68
2023/07/10 07:26:59;;;;;;;13.03;4.17;;;24.80;8.60;;;;;;5074956;28;46509;-68
2023/07/10 07:29:26;;;;;;;15.60;3.93;;;24.90;8.30;;;;;;5078690;27;46422;-68
2023/07/10 07:31:52;;;;;;;10.20;3.53;;;25.00;8.20;;;;;;5087563;27;47194;-68
2023/07/10 07:34:18;;;;;;;7.87;4.00;;;25.00;8.10;;;;;;5082354;27;46421;-70
2023/07/10 07:36:43;;;;;;;12.37;4.00;;;25.10;8.00;;;;;;5086713;27;46414;-67
2023/07/10 07:39:09;;;;;;;9.90;4.20;;;25.30;7.90;;;;;;5080619;27;46269;-67
2023/07/10 07:41:35;;;;;;;13.47;4.60;;;25.30;7.60;;;;;;5081395;27;46988;-69
2023/07/10 07:44:01;;;;;;;9.23;4.10;;;25.30;7.70;;;;;;5084132;27;46396;-68
2023/07/10 07:46:28;;;;;;;7.47;4.17;;;25.10;8.00;;;;;;5079952;27;46336;-68
2023/07/10 07:48:54;;;;;;;18.13;3.97;;;25.00;8.40;;;;;;5085857;27;45915;-68
2023/07/10 07:51:20;;;;;;;8.53;4.47;;;24.90;8.70;;;;;;5083570;27;46390;-68
2023/07/10 07:53:46;;;;;;;10.70;4.40;;;24.70;8.80;;;;;;5081083;27;46459;-69
2023/07/10 07:56:12;;;;;;;16.10;4.53;;;24.50;9.30;;;;;;5079750;27;46417;-69
2023/07/10 07:58:37;;;;;;;10.13;3.83;;;24.30;9.70;;;;;;5076734;27;46553;-69
2023/07/10 08:01:04;;;;;;;7.60;4.10;;;24.10;10.30;;;;;;5081386;27;47114;-68
2023/07/10 08:03:30;;;;;;;16.23;4.33;;;23.80;10.90;;;;;;5076313;27;46302;-68
2023/07/10 08:05:56;;;;;;;12.20;4.23;;;23.70;11.60;;;;;;5076845;27;46498;-69
2023/07/10 08:08:22;;;;;;;15.10;4.17;;;22.90;11.80;;;;;;5085403;27;46526;-69
2023/07/10 08:10:49;;;;;;;17.73;5.43;;;23.20;13.60;;;;;;5080300;27;47140;-70
2023/07/10 08:13:18;;;;;;;15.63;5.30;;;23.00;13.60;;;;;;5076054;27;46394;-69
2023/07/10 08:15:44;;;;;;;16.00;5.37;;;22.90;14.30;;;;;;5078927;27;46561;-70
2023/07/10 08:18:10;;;;;;;16.03;6.20;;;22.90;14.80;;;;;;5078507;27;46422;-71
2023/07/10 08:20:36;;;;;;;13.77;4.87;;;22.80;15.30;;;;;;5075300;27;48127;-71
2023/07/10 08:23:03;;;;;;;19.00;5.50;;;22.60;16.30;;;;;;5072781;27;46766;-70
2023/07/10 08:25:29;;;;;;;13.40;6.00;;;22.50;17.10;;;;;;5076002;27;46879;-71
2023/07/10 08:27:58;;;;;;;20.90;5.40;;;22.20;17.80;;;;;;5076257;27;46634;-71
2023/07/10 08:33:05;;;;;;;17.83;5.10;;;21.90;19.20;;;;;;5068823;28;46433;-67
2023/07/10 08:35:31;;;;;;;14.23;4.83;;;21.80;20.60;;;;;;5074572;28;46539;-69
2023/07/10 08:37:56;;;;;;;15.20;5.33;;;21.70;21.40;;;;;;5071701;27;46657;-70
2023/07/10 08:40:32;;;;;;;8.40;5.03;;;21.60;22.40;;;;;;5074497;28;46978;-70
2023/07/10 08:43:01;;;;;;;22.70;6.10;;;21.60;22.30;;;;;;5074430;28;45822;-71
2023/07/10 08:45:36;;;;;;;10.27;5.43;;;21.60;22.10;;;;;;5075242;28;46094;-69
2023/07/10 08:48:17;;;;;;;10.70;5.10;;;21.60;22.90;;;;;;5073946;28;46648;-69
2023/07/10 08:50:44;;;;;;;12.97;5.80;;;21.60;23.60;;;;;;5074513;28;46537;-69
2023/07/10 08:53:21;;;;;;;13.83;5.20;;;21.50;23.90;;;;;;5074364;28;45955;-69
2023/07/10 08:56:04;;;;;;;12.87;5.80;;;21.50;24.80;;;;;;5074679;28;46532;-69
2023/07/10 08:58:37;;;;;;;13.47;5.80;;;21.60;24.60;;;;;;5074447;28;46319;-70
2023/07/10 09:01:15;;;;;;;19.57;6.60;;;21.70;24.40;;;;;;5077144;28;47155;-70
2023/07/10 09:03:48;;;;;;;13.50;6.03;;;21.80;23.70;;;;;;5074347;28;47432;-69
2023/07/10 09:06:30;;;;;;;16.50;5.97;;;22.00;23.80;;;;;;5073600;28;46758;-69
2023/07/10 09:08:57;;;;;;;15.97;5.87;;;22.20;24.00;;;;;;5074018;28;46491;-69
2023/07/10 09:11:24;;;;;;;15.03;5.63;;;22.40;23.40;;;;;;5075933;28;47126;-70
2023/07/10 09:13:58;;;;;;;11.97;5.90;;;22.60;23.30;;;;;;5075208;27;47017;-70
2023/07/10 09:16:25;;;;;;;14.57;6.50;;;22.80;22.80;;;;;;5074315;27;46063;-69
2023/07/10 09:19:03;;;;;;;12.07;5.90;;;23.10;22.50;;;;;;5073270;28;46504;-68
2023/07/10 09:21:31;;;;;;;18.63;5.90;;;23.40;22.10;;;;;;5073527;28;47573;-69
2023/07/10 09:23:57;;;;;;;18.00;5.73;;;23.70;21.90;;;;;;5077819;28;46086;-70
2023/07/10 09:26:37;;;;;;;13.60;5.93;;;24.00;21.40;;;;;;5075347;28;46544;-69
2023/07/10 09:29:14;;;;;;;11.23;5.83;;;24.20;21.10;;;;;;5077327;28;46406;-69
2023/07/10 09:31:58;;;;;;;17.37;6.20;;;24.50;21.10;;;;;;5075242;28;46601;-70
2023/07/10 09:34:28;;;;;;;15.77;6.30;;;24.70;20.80;;;;;;5078432;28;46473;-69
2023/07/10 09:36:56;;;;;;;11.10;5.03;;;24.90;20.70;;;;;;5077922;28;46020;-69
2023/07/10 09:39:27;;;;;;;12.40;5.80;;;25.20;20.40;;;;;;5076465;28;46462;-69
2023/07/10 09:41:56;;;;;;;12.30;5.60;;;25.30;20.30;;;;;;5079035;28;46299;-69
2023/07/10 09:44:22;;;;;;;24.77;6.53;;;25.40;20.40;;;;;;5077398;28;46390;-69
2023/07/10 09:46:49;;;;;;;14.03;5.37;;;25.50;20.60;;;;;;5078948;28;46508;-68
2023/07/10 09:49:23;;;;;;;10.23;4.90;;;25.40;21.50;;;;;;5076888;28;45932;-69
2023/07/10 09:52:03;;;;;;;18.53;5.83;;;25.50;21.40;;;;;;5077135;28;46417;-69
2023/07/10 09:54:38;;;;;;;10.80;4.90;;;25.70;20.70;;;;;;5078201;28;46300;-68
2023/07/10 09:57:14;;;;;;;12.03;4.87;;;25.90;20.70;;;;;;5078412;27;46529;-69
2023/07/10 09:59:50;;;;;;;10.57;4.73;;;26.10;20.30;;;;;;5076891;28;46429;-69
2023/07/10 10:02:41;;;;;;;13.20;4.77;;;26.30;20.20;;;;;;5077591;28;48137;-69
2023/07/10 10:05:13;;;;;;;13.47;4.60;;;26.50;19.90;;;;;;5077810;28;46441;-69
2023/07/10 10:07:44;;;;;;;13.00;4.30;;;26.90;18.80;;;;;;5073424;28;46478;-69
2023/07/10 10:10:21;;;;;;;10.90;4.47;;;27.20;17.30;;;;;;5076185;28;46710;-70
2023/07/10 10:12:55;;;;;;;8.80;4.13;;;27.50;16.30;;;;;;5077442;28;46948;-69
2023/07/10 10:15:48;;;;;;;13.90;4.17;;;27.80;15.70;;;;;;5076867;28;46455;-69
2023/07/10 10:18:40;;;;;;;13.83;4.37;;;28.00;14.90;;;;;;5054008;28;46573;-68
2023/07/10 10:21:08;;;;;;;7.83;3.80;;;28.20;13.90;;;;;;5078582;28;46577;-68
2023/07/10 10:23:37;;;;;;;8.37;4.60;;;28.30;13.70;;;;;;5076904;27;46728;-70
2023/07/10 10:26:26;;;;;;;16.97;4.20;;;28.40;13.50;;;;;;5077344;27;46662;-70
2023/07/10 10:29:16;;;;;;;8.07;3.97;;;28.50;12.50;;;;;;5076644;28;46347;-69
2023/07/10 10:31:57;;;;;;;10.53;4.10;;;28.70;12.40;;;;;;5075242;28;46728;-69
2023/07/10 10:35:00;;;;;;;16.27;4.20;;;29.00;11.90;;;;;;5078097;28;46734;-70
2023/07/10 10:37:34;;;;;;;6.83;3.53;;;29.20;11.00;;;;;;5076582;27;46359;-69
2023/07/10 10:40:31;;;;;;;8.33;3.90;;;29.30;10.40;;;;;;5077519;28;46134;-69
2023/07/10 10:43:18;;;;;;;6.47;3.30;;;29.50;9.10;;;;;;5077576;27;46414;-69
2023/07/10 10:45:51;;;;;;;9.43;3.60;;;29.70;8.20;;;;;;5076726;28;46368;-70
2023/07/10 10:48:54;;;;;;;6.20;3.10;;;29.90;7.20;;;;;;5074809;28;46403;-69
2023/07/10 10:51:55;;;;;;;7.00;3.20;;;29.90;6.60;;;;;;5052209;28;46614;-68
2023/07/10 10:54:34;;;;;;;7.47;3.47;;;30.30;6.40;;;;;;5041632;28;46476;-68
2023/07/10 10:57:12;;;;;;;12.43;3.37;;;30.50;5.70;;;;;;5075443;28;46417;-68
2023/07/10 10:59:57;;;;;;;9.17;3.60;;;30.90;4.30;;;;;;5075045;28;46426;-69
2023/07/10 11:02:47;;;;;;;5.77;3.17;;;31.10;3.80;;;;;;5075912;28;46456;-68
2023/07/10 11:05:29;;;;;;;6.13;2.93;;;31.30;3.20;;;;;;5076173;28;46454;-70
2023/07/10 11:07:57;;;;;;;9.30;3.70;;;31.70;2.10;;;;;;5074599;28;47140;-68
2023/07/10 11:10:31;;;;;;;8.50;3.40;;;31.60;1.80;;;;;;5076345;28;46434;-70
2023/07/10 11:12:58;;;;;;;6.67;3.47;;;31.20;2.20;;;;;;5077358;28;46419;-69
2023/07/10 11:15:27;;;;;;;7.53;3.63;;;31.10;2.80;;;;;;5075980;27;46750;-69
2023/07/10 11:17:54;;;;;;;6.30;3.67;;;31.00;2.90;;;;;;5075757;28;46520;-69
2023/07/10 11:20:23;;;;;;;7.07;3.57;;;30.90;3.20;;;;;;5076650;28;46408;-69
2023/07/10 11:22:51;;;;;;;6.40;3.23;;;30.70;3.50;;;;;;5076063;28;46531;-69
2023/07/10 11:25:42;;;;;;;12.53;3.67;;;30.70;3.60;;;;;;5076419;28;46431;-71
2023/07/10 11:28:25;;;;;;;6.27;3.67;;;30.80;3.00;;;;;;5076113;27;47040;-70
2023/07/10 11:31:18;;;;;;;9.67;3.60;;;30.80;2.90;;;;;;5074076;28;46488;-68
2023/07/10 11:33:52;;;;;;;8.20;3.30;;;30.80;2.80;;;;;;5076206;28;46509;-68
2023/07/10 11:36:24;;;;;;;6.33;3.20;;;30.90;2.70;;;;;;5078098;28;46391;-69
2023/07/10 11:39:11;;;;;;;6.80;3.20;;;30.90;2.30;;;;;;5075010;28;47252;-70
2023/07/10 11:41:45;;;;;;;6.13;3.30;;;30.90;2.30;;;;;;5073901;28;46522;-69
2023/07/10 11:44:21;;;;;;;7.43;2.97;;;30.80;2.10;;;;;;5077094;27;46505;-69
2023/07/10 11:47:04;;;;;;;7.70;3.60;;;30.60;2.20;;;;;;5076660;28;46619;-69
2023/07/10 11:49:52;;;;;;;5.60;3.10;;;30.40;2.40;;;;;;5072807;28;47273;-68
2023/07/10 11:52:17;;;;;;;8.83;3.30;;;30.20;2.50;;;;;;5075170;28;46761;-69
2023/07/10 11:54:48;;;;;;;6.27;3.10;;;30.30;2.50;;;;;;5074835;28;46324;-69
2023/07/10 11:57:27;;;;;;;6.90;4.00;;;30.50;2.00;;;;;;5075211;28;46818;-69
2023/07/10 12:00:04;;;;;;;14.43;3.93;;;30.50;1.70;;;;;;5076979;27;46498;-69
2023/07/10 12:02:41;;;;;;;7.17;4.30;;;30.30;2.20;;;;;;5076098;28;46394;-69
2023/07/10 12:05:19;;;;;;;10.23;4.03;;;30.30;2.50;;;;;;5074971;28;46477;-69
2023/07/10 12:07:53;;;;;;;9.77;4.37;;;30.40;1.40;;;;;;5075519;27;46457;-69
2023/07/10 12:10:18;;;;;;;9.53;4.33;;;30.40;1.90;;;;;;5074994;28;48017;-69
2023/07/10 12:12:44;;;;;;;8.97;4.23;;;30.60;2.00;;;;;;5076542;27;46419;-69
2023/07/10 12:15:10;;;;;;;8.10;3.80;;;30.70;1.70;;;;;;5076277;28;46732;-69
2023/07/10 12:17:38;;;;;;;11.37;5.00;;;30.50;1.80;;;;;;5076109;27;46383;-70
2023/07/10 12:20:17;;;;;;;9.67;4.37;;;30.50;2.00;;;;;;5076798;28;47643;-70
2023/07/10 12:22:43;;;;;;;8.27;4.40;;;30.50;1.70;;;;;;5090340;27;46495;-70
2023/07/10 12:25:15;;;;;;;9.70;4.20;;;30.80;1.40;;;;;;5075941;28;46606;-69
2023/07/10 12:27:41;;;;;;;11.83;3.97;;;31.20;1.00;;;;;;5075232;28;46547;-69
2023/07/10 12:30:17;;;;;;;9.17;3.93;;;31.50;1.00;;;;;;5077059;27;48068;-69
2023/07/10 12:32:43;;;;;;;6.73;4.03;;;31.90;1.00;;;;;;5075223;28;46703;-69
2023/07/10 12:35:23;;;;;;;16.90;5.43;;;32.40;1.00;;;;;;5075076;28;46577;-70
2023/07/10 12:37:49;;;;;;;9.13;4.10;;;32.70;1.00;;;;;;5074825;28;46505;-69
2023/07/10 12:40:17;;;;;;;9.43;4.47;;;32.70;1.00;;;;;;5074625;27;47200;-68
2023/07/10 12:42:44;;;;;;;7.70;4.33;;;32.50;1.00;;;;;;5073302;27;46878;-69
2023/07/10 12:45:32;;;;;;;7.83;4.03;;;32.70;1.00;;;;;;5075223;27;46524;-69
2023/07/10 12:48:13;;;;;;;6.73;4.00;;;32.50;1.00;;;;;;5074001;28;45918;-70
2023/07/10 12:50:46;;;;;;;6.30;3.93;;;32.30;1.00;;;;;;5075044;27;46500;-68
2023/07/10 12:53:24;;;;;;;9.33;3.87;;;32.00;1.00;;;;;;5072773;28;46420;-69
2023/07/10 12:56:11;;;;;;;9.50;4.03;;;32.10;1.00;;;;;;5075249;28;46450;-68
2023/07/10 12:58:37;;;;;;;8.30;3.70;;;32.20;1.00;;;;;;5075207;28;46533;-70
2023/07/10 13:01:25;;;;;;;8.77;4.40;;;32.40;1.00;;;;;;5074330;27;46456;-69